createdAt,value
2019-01-30T00:00:53.248Z,90.20
2019-01-30T00:03:19.994Z,90.60
2019-01-30T00:05:46.750Z,91.00
2019-01-30T00:08:13.368Z,90.90
2019-01-30T00:10:40.035Z,90.40
2019-01-30T00:13:06.640Z,90.30
2019-01-30T00:15:33.309Z,90.70
2019-01-30T00:17:59.958Z,90.60
2019-01-30T00:20:26.596Z,90.00
2019-01-30T00:22:53.219Z,90.50
2019-01-30T00:25:19.938Z,90.20
2019-01-30T00:27:46.604Z,90.70
2019-01-30T00:30:21.080Z,90.60
2019-01-30T00:32:47.772Z,90.00
2019-01-30T00:35:14.397Z,90.30
2019-01-30T00:37:41.064Z,90.30
2019-01-30T00:40:13.224Z,91.10
2019-01-30T00:42:39.871Z,91.30
2019-01-30T00:45:10.045Z,91.60
2019-01-30T00:47:36.701Z,91.00
2019-01-30T00:50:09.688Z,91.00
2019-01-30T00:52:36.416Z,91.10
2019-01-30T00:55:05.381Z,90.80
2019-01-30T00:57:31.993Z,91.30
2019-01-30T00:59:58.668Z,91.00
2019-01-30T01:02:25.392Z,91.10
2019-01-30T01:04:52.146Z,90.40
2019-01-30T01:07:18.775Z,90.30
2019-01-30T01:09:45.448Z,90.80
2019-01-30T01:12:12.085Z,91.00
2019-01-30T01:14:38.709Z,90.90
2019-01-30T01:17:05.319Z,90.80
2019-01-30T01:19:31.981Z,90.20
2019-01-30T01:21:58.606Z,90.00
2019-01-30T01:24:25.264Z,90.00
2019-01-30T01:26:52.018Z,90.00
2019-01-30T01:29:18.643Z,89.90
2019-01-30T01:31:45.334Z,90.00
2019-01-30T01:34:12.000Z,90.40
2019-01-30T01:36:38.653Z,90.50
2019-01-30T01:39:06.111Z,90.10
2019-01-30T01:41:32.785Z,90.00
2019-01-30T01:43:59.536Z,89.50
2019-01-30T01:46:26.170Z,90.30
2019-01-30T01:48:52.841Z,90.10
2019-01-30T01:51:19.567Z,90.00
2019-01-30T01:53:46.219Z,90.40
2019-01-30T01:56:12.939Z,90.20
2019-01-30T01:58:39.606Z,90.50
2019-01-30T02:01:06.332Z,90.30
2019-01-30T02:06:13.473Z,90.20
2019-01-30T02:08:40.132Z,90.20
2019-01-30T02:11:06.775Z,90.20
2019-01-30T02:13:33.460Z,90.00
2019-01-30T02:16:00.199Z,89.40
2019-01-30T02:18:26.853Z,90.10
2019-01-30T02:20:53.512Z,89.90
2019-01-30T02:23:20.125Z,90.00
2019-01-30T02:25:46.789Z,90.60
2019-01-30T02:28:13.441Z,91.60
2019-01-30T02:30:47.009Z,91.20
2019-01-30T02:33:08.580Z,90.80
2019-01-30T02:35:35.231Z,90.90
2019-01-30T02:38:01.866Z,91.20
2019-01-30T02:40:28.465Z,90.90
2019-01-30T02:42:55.121Z,90.70
2019-01-30T02:45:23.500Z,90.00
2019-01-30T02:47:50.173Z,90.20
2019-01-30T02:50:18.507Z,91.00
2019-01-30T02:52:45.160Z,90.90
2019-01-30T02:55:13.693Z,91.30
2019-01-30T02:57:40.356Z,91.70
2019-01-30T03:00:21.909Z,90.60
2019-01-30T03:02:49.188Z,91.20
2019-01-30T03:05:15.941Z,91.30
2019-01-30T03:07:42.593Z,92.30
2019-01-30T03:10:12.816Z,92.10
2019-01-30T03:12:39.585Z,92.10
2019-01-30T03:15:08.609Z,91.10
2019-01-30T03:17:35.261Z,91.10
2019-01-30T03:20:04.142Z,90.90
2019-01-30T03:22:30.804Z,91.30
2019-01-30T03:24:57.453Z,90.90
2019-01-30T03:27:24.113Z,90.40
2019-01-30T03:29:50.786Z,90.60
2019-01-30T03:32:17.443Z,90.80
2019-01-30T03:34:44.076Z,91.00
2019-01-30T03:37:10.768Z,90.50
2019-01-30T03:39:37.378Z,91.60
2019-01-30T03:42:04.086Z,90.90
2019-01-30T03:44:30.735Z,90.50
2019-01-30T03:46:57.584Z,90.50
2019-01-30T03:49:24.205Z,90.70
2019-01-30T03:51:50.978Z,90.50
2019-01-30T03:54:17.591Z,91.20
2019-01-30T03:56:44.243Z,90.70
2019-01-30T03:59:10.859Z,91.60
2019-01-30T04:01:37.523Z,90.90
2019-01-30T04:04:04.177Z,91.00
2019-01-30T04:06:30.827Z,90.00
2019-01-30T04:08:57.485Z,89.80
2019-01-30T04:11:24.154Z,88.60
2019-01-30T04:13:50.779Z,89.40
2019-01-30T04:16:17.424Z,86.40
2019-01-30T04:18:44.059Z,86.20
2019-01-30T04:21:10.728Z,84.90
2019-01-30T04:23:37.371Z,85.20
2019-01-30T04:26:04.127Z,85.40
2019-01-30T04:28:30.867Z,86.70
2019-01-30T04:30:57.505Z,85.30
2019-01-30T04:33:24.399Z,83.40
2019-01-30T04:35:51.016Z,84.20
2019-01-30T04:38:17.794Z,84.70
2019-01-30T04:40:44.598Z,85.20
2019-01-30T04:43:11.413Z,86.30
2019-01-30T04:45:38.031Z,85.50
2019-01-30T04:48:04.644Z,88.30
2019-01-30T04:50:31.292Z,86.00
2019-01-30T04:52:57.919Z,85.30
2019-01-30T04:55:24.593Z,86.00
2019-01-30T04:57:51.232Z,86.00
2019-01-30T05:00:21.053Z,84.50
2019-01-30T05:02:48.040Z,85.40
2019-01-30T05:05:14.702Z,85.30
2019-01-30T05:07:41.407Z,85.60
2019-01-30T05:10:10.225Z,84.70
2019-01-30T05:12:36.881Z,84.80
2019-01-30T05:15:09.725Z,85.20
2019-01-30T05:17:36.380Z,85.80
2019-01-30T05:20:06.199Z,85.40
2019-01-30T05:22:32.834Z,85.70
2019-01-30T05:24:59.483Z,84.90
2019-01-30T05:27:26.132Z,85.00
2019-01-30T05:29:52.784Z,84.40
2019-01-30T05:32:19.512Z,83.50
2019-01-30T05:34:46.263Z,83.40
2019-01-30T05:37:12.918Z,83.70
2019-01-30T05:39:39.632Z,82.70
2019-01-30T05:42:06.233Z,82.90
2019-01-30T05:44:32.862Z,83.30
2019-01-30T05:46:59.534Z,83.90
2019-01-30T05:49:26.173Z,81.90
2019-01-30T05:51:52.847Z,81.90
2019-01-30T05:54:19.442Z,82.30
2019-01-30T05:56:46.100Z,83.30
2019-01-30T05:59:12.718Z,82.70
2019-01-30T06:01:39.387Z,82.20
2019-01-30T06:04:06.004Z,82.20
2019-01-30T06:06:32.694Z,81.00
2019-01-30T06:08:59.339Z,80.40
2019-01-30T06:11:25.953Z,80.70
2019-01-30T06:13:52.607Z,80.10
2019-01-30T06:16:19.229Z,80.30
2019-01-30T06:18:45.884Z,80.60
2019-01-30T06:21:12.503Z,80.40
2019-01-30T06:23:39.167Z,81.10
2019-01-30T06:26:05.878Z,81.10
2019-01-30T06:28:32.567Z,81.70
2019-01-30T06:30:59.191Z,82.30
2019-01-30T06:33:25.833Z,81.50
2019-01-30T06:35:52.500Z,80.20
2019-01-30T06:38:19.137Z,80.40
2019-01-30T06:40:45.877Z,79.70
2019-01-30T06:43:12.489Z,80.30
2019-01-30T06:45:39.226Z,80.30
2019-01-30T06:48:06.007Z,80.00
2019-01-30T06:50:32.648Z,80.70
2019-01-30T06:52:59.321Z,78.60
2019-01-30T06:55:26.080Z,77.90
2019-01-30T06:57:52.753Z,78.50
2019-01-30T07:00:24.766Z,78.20
2019-01-30T07:02:51.993Z,78.30
2019-01-30T07:05:18.665Z,78.90
2019-01-30T07:07:45.336Z,77.30
2019-01-30T07:10:15.124Z,77.20
2019-01-30T07:12:41.749Z,77.00
2019-01-30T07:15:08.411Z,78.00
2019-01-30T07:17:35.220Z,78.00
2019-01-30T07:20:01.837Z,77.80
2019-01-30T07:22:28.492Z,76.50
2019-01-30T07:24:55.103Z,75.40
2019-01-30T07:27:21.788Z,75.70
2019-01-30T07:29:48.411Z,76.80
2019-01-30T07:32:15.068Z,75.00
2019-01-30T07:34:41.679Z,75.40
2019-01-30T07:37:08.337Z,74.40
2019-01-30T07:39:34.981Z,73.70
2019-01-30T07:42:01.600Z,74.70
2019-01-30T07:44:28.357Z,74.50
2019-01-30T07:46:54.976Z,74.50
2019-01-30T07:49:21.633Z,74.10
2019-01-30T07:51:48.272Z,73.30
2019-01-30T07:54:14.949Z,74.20
2019-01-30T07:56:41.589Z,73.80
2019-01-30T07:59:08.236Z,74.10
2019-01-30T08:01:34.855Z,74.30
2019-01-30T08:04:01.580Z,74.00
2019-01-30T08:06:28.235Z,75.10
2019-01-30T08:08:54.939Z,74.50
2019-01-30T08:11:21.597Z,74.40
2019-01-30T08:13:48.204Z,73.40
2019-01-30T08:16:14.869Z,74.40
2019-01-30T08:18:41.521Z,73.50
2019-01-30T08:21:08.182Z,74.40
2019-01-30T08:23:34.973Z,74.50
2019-01-30T08:26:01.841Z,75.00
2019-01-30T08:28:28.749Z,73.80
2019-01-30T08:30:55.756Z,73.00
2019-01-30T08:33:22.368Z,74.10
2019-01-30T08:35:49.011Z,73.80
2019-01-30T08:38:15.687Z,74.10
2019-01-30T08:40:42.320Z,74.20
2019-01-30T08:43:08.995Z,73.30
2019-01-30T08:45:35.633Z,73.70
2019-01-30T08:48:02.348Z,73.40
2019-01-30T08:50:29.313Z,73.50
2019-01-30T08:52:56.237Z,73.20
2019-01-30T08:55:22.948Z,73.50
2019-01-30T08:57:49.563Z,72.70
2019-01-30T09:00:22.149Z,71.60
2019-01-30T09:02:48.868Z,71.20
2019-01-30T09:05:15.480Z,72.50
2019-01-30T09:07:44.496Z,71.00
2019-01-30T09:10:14.321Z,71.50
2019-01-30T09:12:40.963Z,71.10
2019-01-30T09:15:10.892Z,71.40
2019-01-30T09:17:37.591Z,71.10
2019-01-30T09:20:07.893Z,71.40
2019-01-30T09:22:34.548Z,71.90
2019-01-30T09:25:01.164Z,71.70
2019-01-30T09:27:27.892Z,72.50
2019-01-30T09:29:54.509Z,72.10
2019-01-30T09:32:21.154Z,73.10
2019-01-30T09:34:47.888Z,72.20
2019-01-30T09:37:14.639Z,72.50
2019-01-30T09:39:41.303Z,73.20
2019-01-30T09:42:07.908Z,72.70
2019-01-30T09:44:34.571Z,72.40
2019-01-30T09:47:01.202Z,71.10
2019-01-30T09:49:27.857Z,71.70
2019-01-30T09:51:54.454Z,72.30
2019-01-30T09:54:21.120Z,71.80
2019-01-30T09:56:47.708Z,72.50
2019-01-30T09:59:14.366Z,72.00
2019-01-30T10:01:41.009Z,72.60
2019-01-30T10:04:07.738Z,72.90
2019-01-30T10:06:34.388Z,72.00
2019-01-30T10:09:01.034Z,72.80
2019-01-30T10:11:27.686Z,72.20
2019-01-30T10:13:54.305Z,72.40
2019-01-30T10:16:20.960Z,71.90
2019-01-30T10:18:47.616Z,73.40
2019-01-30T10:21:14.371Z,73.60
2019-01-30T10:23:41.085Z,73.70
2019-01-30T10:26:08.068Z,73.80
2019-01-30T10:28:34.728Z,75.00
2019-01-30T10:31:01.387Z,76.00
2019-01-30T10:33:28.135Z,76.90
2019-01-30T10:35:54.900Z,77.70
2019-01-30T10:38:21.575Z,79.10
2019-01-30T10:40:48.209Z,79.60
2019-01-30T10:43:14.882Z,81.20
2019-01-30T10:45:41.537Z,82.10
2019-01-30T10:48:08.201Z,83.00
2019-01-30T10:50:34.854Z,83.90
2019-01-30T10:53:01.517Z,83.60
2019-01-30T10:55:33.047Z,85.10
2019-01-30T10:58:01.088Z,85.60
2019-01-30T11:00:34.256Z,85.50
2019-01-30T11:03:00.869Z,87.00
2019-01-30T11:05:27.567Z,87.60
2019-01-30T11:07:54.421Z,87.50
2019-01-30T11:10:21.068Z,87.90
2019-01-30T11:12:47.715Z,87.00
2019-01-30T11:15:16.634Z,88.00
2019-01-30T11:17:43.304Z,87.80
2019-01-30T11:20:13.239Z,87.70
2019-01-30T11:22:39.883Z,87.40
2019-01-30T11:25:31.534Z,87.50
2019-01-30T11:27:58.228Z,87.10
2019-01-30T11:30:26.462Z,88.70
2019-01-30T11:32:55.444Z,89.80
2019-01-30T11:35:21.555Z,88.20
2019-01-30T11:37:48.180Z,88.80
2019-01-30T11:40:19.528Z,89.80
2019-01-30T11:42:46.163Z,88.70
2019-01-30T11:45:16.456Z,88.50
2019-01-30T11:47:43.070Z,88.70
2019-01-30T11:50:12.359Z,88.50
2019-01-30T11:52:39.008Z,88.00
2019-01-30T11:55:08.432Z,89.30
2019-01-30T11:57:35.082Z,89.80
2019-01-30T12:00:01.807Z,87.80
2019-01-30T12:02:28.464Z,87.00
2019-01-30T12:04:55.095Z,87.00
2019-01-30T12:07:21.760Z,88.80
2019-01-30T12:09:48.460Z,87.40
2019-01-30T12:12:15.116Z,86.80
2019-01-30T12:14:41.774Z,87.00
2019-01-30T12:17:08.472Z,86.20
2019-01-30T12:19:35.208Z,85.70
2019-01-30T12:22:01.879Z,84.30
2019-01-30T12:24:28.519Z,84.80
2019-01-30T12:27:08.496Z,85.40
2019-01-30T12:29:35.163Z,85.20
2019-01-30T12:32:02.202Z,85.10
2019-01-30T12:34:28.876Z,86.00
2019-01-30T12:36:55.561Z,86.20
2019-01-30T12:39:22.184Z,85.80
2019-01-30T12:41:48.796Z,85.50
2019-01-30T12:44:15.480Z,85.40
2019-01-30T12:46:42.143Z,84.00
2019-01-30T12:49:08.805Z,84.40
2019-01-30T12:51:36.270Z,83.40
2019-01-30T12:54:03.213Z,82.70
2019-01-30T12:56:29.840Z,83.60
2019-01-30T12:58:56.487Z,83.10
2019-01-30T13:01:23.099Z,83.40
2019-01-30T13:03:49.711Z,82.90
2019-01-30T13:06:16.463Z,82.70
2019-01-30T13:08:43.105Z,81.90
2019-01-30T13:11:09.745Z,83.10
2019-01-30T13:13:36.411Z,82.30
2019-01-30T13:16:03.385Z,81.60
2019-01-30T13:18:29.991Z,80.30
2019-01-30T13:20:56.685Z,79.00
2019-01-30T13:23:23.382Z,79.60
2019-01-30T13:25:50.027Z,79.60
2019-01-30T13:28:16.828Z,82.20
2019-01-30T13:30:43.904Z,80.60
2019-01-30T13:33:10.828Z,81.50
2019-01-30T13:35:37.765Z,80.60
2019-01-30T13:38:04.380Z,79.80
2019-01-30T13:40:33.744Z,80.00
2019-01-30T13:43:00.366Z,81.10
2019-01-30T13:45:27.949Z,80.40
2019-01-30T13:47:54.575Z,81.10
2019-01-30T13:50:23.360Z,80.20
2019-01-30T13:52:50.006Z,80.40
2019-01-30T13:55:16.671Z,80.20
2019-01-30T13:57:43.319Z,79.90
2019-01-30T14:00:19.698Z,80.50
2019-01-30T14:02:46.465Z,80.70
2019-01-30T14:05:13.183Z,79.40
2019-01-30T14:07:39.834Z,80.00
2019-01-30T14:10:08.454Z,80.30
2019-01-30T14:12:35.132Z,80.90
2019-01-30T14:15:01.883Z,80.30
2019-01-30T14:17:28.504Z,79.60
2019-01-30T14:19:55.149Z,80.10
2019-01-30T14:22:21.785Z,80.40
2019-01-30T14:24:48.468Z,80.50
2019-01-30T14:27:15.126Z,80.30
2019-01-30T14:29:41.924Z,80.70
2019-01-30T14:32:08.576Z,80.10
2019-01-30T14:34:35.246Z,80.20
2019-01-30T14:37:01.853Z,81.00
2019-01-30T14:39:28.517Z,81.20
2019-01-30T14:41:55.280Z,81.90
2019-01-30T14:44:21.900Z,82.20
2019-01-30T14:46:48.555Z,82.30
2019-01-30T14:49:15.224Z,83.30
2019-01-30T14:51:41.863Z,83.10
2019-01-30T14:54:08.458Z,82.60
2019-01-30T14:56:35.344Z,82.10
2019-01-30T14:59:01.948Z,82.40
2019-01-30T15:01:28.776Z,82.30
2019-01-30T15:03:55.418Z,82.40
2019-01-30T15:06:22.074Z,82.00
2019-01-30T15:08:48.645Z,82.00
2019-01-30T15:11:15.269Z,82.10
2019-01-30T15:13:41.959Z,82.60
2019-01-30T15:16:08.579Z,83.20
2019-01-30T15:18:35.231Z,83.00
2019-01-30T15:21:01.849Z,82.70
2019-01-30T15:23:28.542Z,82.90
2019-01-30T15:25:55.192Z,81.60
2019-01-30T15:28:21.840Z,82.60
2019-01-30T15:30:48.502Z,83.00
2019-01-30T15:33:34.920Z,81.60
2019-01-30T15:36:01.620Z,81.90
2019-01-30T15:38:28.293Z,82.50
2019-01-30T15:40:54.895Z,82.00
2019-01-30T15:43:21.659Z,81.90
2019-01-30T15:45:48.522Z,82.60
2019-01-30T15:48:15.128Z,81.00
2019-01-30T15:50:41.895Z,81.50
2019-01-30T15:53:13.301Z,82.00
2019-01-30T15:55:39.944Z,82.20
2019-01-30T15:58:08.916Z,82.40
2019-01-30T16:00:44.163Z,82.10
2019-01-30T16:03:11.057Z,81.40
2019-01-30T16:05:44.510Z,81.60
2019-01-30T16:08:06.707Z,81.60
2019-01-30T16:10:33.533Z,81.70
2019-01-30T16:13:00.210Z,81.70
2019-01-30T16:15:29.941Z,81.60
2019-01-30T16:17:56.644Z,81.30
2019-01-30T16:20:23.268Z,81.30
2019-01-30T16:22:50.096Z,82.10
2019-01-30T16:25:18.962Z,82.30
2019-01-30T16:27:45.656Z,82.30
2019-01-30T16:30:15.432Z,82.30
2019-01-30T16:32:42.256Z,83.50
2019-01-30T16:35:12.264Z,82.60
2019-01-30T16:37:39.039Z,82.00
2019-01-30T16:40:09.319Z,81.80
2019-01-30T16:42:36.208Z,82.00
2019-01-30T16:45:06.552Z,81.70
2019-01-30T16:47:33.159Z,82.20
2019-01-30T16:50:00.017Z,82.10
2019-01-30T16:52:26.805Z,82.70
2019-01-30T16:54:53.487Z,81.50
2019-01-30T16:57:20.264Z,82.00
2019-01-30T16:59:46.884Z,83.70
2019-01-30T17:02:13.552Z,82.80
2019-01-30T17:04:40.286Z,82.80
2019-01-30T17:07:06.905Z,83.00
2019-01-30T17:09:33.590Z,83.00
2019-01-30T17:12:00.598Z,82.40
2019-01-30T17:14:27.479Z,82.60
2019-01-30T17:16:54.211Z,83.00
2019-01-30T17:19:21.072Z,82.90
2019-01-30T17:21:47.793Z,83.50
2019-01-30T17:24:14.631Z,82.80
2019-01-30T17:26:41.449Z,82.90
2019-01-30T17:29:08.218Z,82.60
2019-01-30T17:31:34.819Z,82.80
2019-01-30T17:34:01.680Z,83.10
2019-01-30T17:36:28.460Z,83.80
2019-01-30T17:38:55.255Z,85.00
2019-01-30T17:41:21.993Z,85.00
2019-01-30T17:43:48.888Z,85.10
2019-01-30T17:46:15.603Z,85.40
2019-01-30T17:48:42.312Z,84.90
2019-01-30T17:51:09.144Z,84.50
2019-01-30T17:53:35.664Z,84.80
2019-01-30T17:56:02.358Z,84.20
2019-01-30T17:58:29.016Z,85.20
2019-01-30T18:00:57.517Z,84.90
2019-01-30T18:03:24.156Z,84.60
2019-01-30T18:05:50.919Z,85.00
2019-01-30T18:08:17.432Z,85.30
2019-01-30T18:10:44.003Z,85.00
2019-01-30T18:13:10.767Z,85.10
2019-01-30T18:15:37.271Z,85.00
2019-01-30T18:18:03.816Z,85.30
2019-01-30T18:20:30.435Z,85.90
2019-01-30T18:22:56.976Z,89.20
2019-01-30T18:25:23.539Z,91.40
2019-01-30T18:27:50.082Z,92.20
2019-01-30T18:30:18.331Z,92.40
2019-01-30T18:32:44.842Z,92.20
2019-01-30T18:35:11.793Z,92.00
2019-01-30T18:37:38.447Z,92.30
2019-01-30T18:40:11.152Z,92.00
2019-01-30T18:42:37.668Z,91.90
2019-01-30T18:45:10.365Z,92.20
2019-01-30T18:47:36.909Z,92.20
2019-01-30T18:50:07.053Z,92.40
2019-01-30T18:52:33.576Z,92.00
2019-01-30T18:55:00.181Z,92.10
2019-01-30T18:57:26.672Z,92.10
2019-01-30T18:59:53.228Z,92.10
2019-01-30T19:02:19.769Z,91.90
2019-01-30T19:04:46.328Z,92.10
2019-01-30T19:07:12.888Z,91.90
2019-01-30T19:09:39.416Z,91.70
2019-01-30T19:12:05.955Z,92.10
2019-01-30T19:14:32.507Z,92.20
2019-01-30T19:16:59.080Z,92.30
2019-01-30T19:19:25.592Z,92.80
2019-01-30T19:21:52.151Z,92.90
2019-01-30T19:24:19.884Z,92.70
2019-01-30T19:26:46.613Z,92.30
2019-01-30T19:29:13.170Z,92.90
2019-01-30T19:31:39.773Z,93.00
2019-01-30T19:34:06.335Z,93.20
2019-01-30T19:36:32.898Z,93.30
2019-01-30T19:38:59.488Z,93.40
2019-01-30T19:41:26.912Z,93.80
2019-01-30T19:43:53.501Z,93.50
2019-01-30T19:46:20.052Z,93.30
2019-01-30T19:48:46.592Z,93.50
2019-01-30T19:51:13.116Z,93.60
2019-01-30T19:53:39.672Z,93.30
2019-01-30T19:56:06.211Z,93.30
2019-01-30T19:58:32.738Z,92.90
2019-01-30T20:00:59.378Z,92.50
2019-01-30T20:03:26.084Z,92.40
2019-01-30T20:05:52.644Z,92.10
2019-01-30T20:08:19.254Z,92.10
2019-01-30T20:10:45.928Z,91.80
2019-01-30T20:13:12.446Z,93.00
2019-01-30T20:15:38.998Z,92.20
2019-01-30T20:18:06.236Z,91.90
2019-01-30T20:20:32.856Z,91.80
2019-01-30T20:22:59.460Z,91.90
2019-01-30T20:25:35.090Z,91.80
2019-01-30T20:28:01.806Z,91.90
2019-01-30T20:30:28.326Z,91.60
2019-01-30T20:32:54.884Z,91.10
2019-01-30T20:35:21.410Z,90.40
2019-01-30T20:37:48.393Z,90.60
2019-01-30T20:40:26.613Z,90.20
2019-01-30T20:42:53.490Z,89.60
2019-01-30T20:45:20.012Z,89.60
2019-01-30T20:47:46.567Z,89.70
2019-01-30T20:50:25.625Z,89.20
2019-01-30T20:52:52.176Z,88.80
2019-01-30T20:55:18.919Z,89.00
2019-01-30T20:57:45.428Z,89.00
2019-01-30T21:00:16.053Z,89.50
2019-01-30T21:02:42.566Z,88.90
2019-01-30T21:05:09.740Z,88.80
2019-01-30T21:07:37.398Z,89.30
2019-01-30T21:10:07.922Z,89.20
2019-01-30T21:12:34.456Z,88.60
2019-01-30T21:15:01.016Z,88.80
2019-01-30T21:17:27.536Z,88.70
2019-01-30T21:19:54.822Z,88.60
2019-01-30T21:22:21.463Z,88.10
2019-01-30T21:24:47.960Z,88.00
2019-01-30T21:27:14.659Z,88.10
2019-01-30T21:29:41.190Z,89.70
2019-01-30T21:32:07.732Z,90.20
2019-01-30T21:34:34.235Z,90.00
2019-01-30T21:37:00.803Z,90.40
2019-01-30T21:39:27.317Z,90.90
2019-01-30T21:41:53.980Z,90.20
2019-01-30T21:44:20.548Z,90.20
2019-01-30T21:46:47.096Z,90.10
2019-01-30T21:49:13.687Z,90.10
2019-01-30T21:51:40.231Z,90.00
2019-01-30T21:54:06.798Z,90.40
2019-01-30T21:56:33.304Z,90.20
2019-01-30T21:58:59.871Z,90.40
2019-01-30T22:01:26.388Z,90.40
2019-01-30T22:03:52.924Z,90.20
2019-01-30T22:06:19.544Z,90.50
2019-01-30T22:08:46.146Z,90.40
2019-01-30T22:11:12.700Z,90.60
2019-01-30T22:13:39.264Z,90.50
2019-01-30T22:16:05.786Z,90.50
2019-01-30T22:18:32.312Z,91.20
2019-01-30T22:20:58.880Z,90.90
2019-01-30T22:23:25.504Z,90.90
2019-01-30T22:25:52.039Z,91.40
2019-01-30T22:28:18.587Z,91.00
2019-01-30T22:30:45.123Z,91.30
2019-01-30T22:33:11.652Z,91.00
2019-01-30T22:35:38.195Z,90.60
2019-01-30T22:38:12.188Z,90.80
2019-01-30T22:40:33.075Z,90.50
2019-01-30T22:42:59.636Z,90.40
2019-01-30T22:45:26.172Z,90.40
2019-01-30T22:47:52.728Z,90.00
2019-01-30T22:50:19.965Z,90.40
2019-01-30T22:52:46.621Z,90.20
2019-01-30T22:55:15.176Z,90.20
2019-01-30T22:57:41.714Z,90.50
2019-01-30T23:00:31.719Z,90.50
2019-01-30T23:02:58.363Z,90.30
2019-01-30T23:05:45.333Z,90.10
2019-01-30T23:08:22.913Z,90.30
2019-01-30T23:11:09.540Z,90.10
2019-01-30T23:13:45.884Z,90.20
2019-01-30T23:16:25.406Z,90.30
2019-01-30T23:19:18.538Z,91.00
2019-01-30T23:21:48.671Z,91.20
2019-01-30T23:24:49.295Z,91.50
2019-01-30T23:27:19.444Z,91.50
2019-01-30T23:29:55.282Z,91.60
2019-01-30T23:32:43.524Z,91.60
2019-01-30T23:35:28.278Z,92.00
2019-01-30T23:38:01.263Z,92.10
2019-01-30T23:40:54.072Z,92.00
2019-01-30T23:43:41.760Z,92.50
2019-01-30T23:46:14.728Z,92.20
2019-01-30T23:49:10.956Z,92.20
2019-01-30T23:52:06.927Z,92.30
2019-01-30T23:54:48.871Z,92.80
2019-01-30T23:57:37.107Z,92.40
